sensor_id;sensor_type;location;lat;lon;timestamp;pressure;altitude;pressure_sealevel;temperature;humidity
75788;BME280;64406;50.024;14.492;2024-01-06T00:00:28;96822.81;;;2.83;97.86
75788;BME280;64406;50.024;14.492;2024-01-06T00:03:13;96820.97;;;2.79;97.95
75788;BME280;64406;50.024;14.492;2024-01-06T00:05:39;96820.69;;;2.75;98.19
75788;BME280;64406;50.024;14.492;2024-01-06T00:08:05;96823.09;;;2.82;97.92
75788;BME280;64406;50.024;14.492;2024-01-06T00:10:31;96814.88;;;2.88;98.04
75788;BME280;64406;50.024;14.492;2024-01-06T00:12:57;96804.22;;;2.88;97.98
75788;BME280;64406;50.024;14.492;2024-01-06T00:15:23;96802.09;;;2.95;97.45
75788;BME280;64406;50.024;14.492;2024-01-06T00:17:49;96810.63;;;3.13;96.38
75788;BME280;64406;50.024;14.492;2024-01-06T00:20:15;96801.88;;;3.12;96.46
75788;BME280;64406;50.024;14.492;2024-01-06T00:22:40;96794.41;;;3.04;96.93
75788;BME280;64406;50.024;14.492;2024-01-06T00:25:08;96800.53;;;3.05;96.75
75788;BME280;64406;50.024;14.492;2024-01-06T00:27:33;96801.56;;;3.04;96.80
75788;BME280;64406;50.024;14.492;2024-01-06T00:29:59;96805.06;;;3.19;96.49
75788;BME280;64406;50.024;14.492;2024-01-06T00:32:25;96807.44;;;3.21;96.33
75788;BME280;64406;50.024;14.492;2024-01-06T00:34:50;96805.03;;;3.40;95.42
75788;BME280;64406;50.024;14.492;2024-01-06T00:37:16;96807.97;;;3.53;93.85
75788;BME280;64406;50.024;14.492;2024-01-06T00:39:41;96812.75;;;3.41;93.62
75788;BME280;64406;50.024;14.492;2024-01-06T00:42:07;96805.59;;;3.26;94.93
75788;BME280;64406;50.024;14.492;2024-01-06T00:44:35;96813.81;;;3.35;95.24
75788;BME280;64406;50.024;14.492;2024-01-06T00:47:01;96814.34;;;3.22;95.51
75788;BME280;64406;50.024;14.492;2024-01-06T00:49:27;96816.75;;;3.23;95.75
75788;BME280;64406;50.024;14.492;2024-01-06T00:51:52;96823.69;;;3.19;95.54
75788;BME280;64406;50.024;14.492;2024-01-06T00:54:18;96832.44;;;3.15;95.68
75788;BME280;64406;50.024;14.492;2024-01-06T00:56:44;96820.75;;;3.16;96.23
75788;BME280;64406;50.024;14.492;2024-01-06T00:59:09;96815.41;;;3.16;95.29
75788;BME280;64406;50.024;14.492;2024-01-06T01:01:35;96818.09;;;3.21;95.20
75788;BME280;64406;50.024;14.492;2024-01-06T01:04:00;96820.22;;;3.19;95.29
75788;BME280;64406;50.024;14.492;2024-01-06T01:06:27;96821.28;;;3.08;95.56
75788;BME280;64406;50.024;14.492;2024-01-06T01:08:52;96821.81;;;3.05;95.79
75788;BME280;64406;50.024;14.492;2024-01-06T01:11:19;96823.69;;;3.04;96.75
75788;BME280;64406;50.024;14.492;2024-01-06T01:13:44;96831.38;;;3.06;96.75
75788;BME280;64406;50.024;14.492;2024-01-06T01:16:10;96833.00;;;3.12;95.94
75788;BME280;64406;50.024;14.492;2024-01-06T01:18:36;96835.91;;;3.15;95.93
75788;BME280;64406;50.024;14.492;2024-01-06T01:21:01;96835.91;;;3.15;95.20
75788;BME280;64406;50.024;14.492;2024-01-06T01:23:27;96835.38;;;3.18;96.06
75788;BME280;64406;50.024;14.492;2024-01-06T01:25:54;96838.06;;;3.18;95.58
75788;BME280;64406;50.024;14.492;2024-01-06T01:28:19;96845.25;;;3.18;95.46
75788;BME280;64406;50.024;14.492;2024-01-06T01:30:45;96843.63;;;3.12;95.88
75788;BME280;64406;50.024;14.492;2024-01-06T01:33:11;96843.88;;;3.10;96.01
75788;BME280;64406;50.024;14.492;2024-01-06T01:35:36;96843.63;;;3.12;95.64
75788;BME280;64406;50.024;14.492;2024-01-06T01:38:02;96829.78;;;3.05;95.38
75788;BME280;64406;50.024;14.492;2024-01-06T01:40:28;96838.31;;;3.07;95.09
75788;BME280;64406;50.024;14.492;2024-01-06T01:42:53;96838.81;;;3.04;95.80
75788;BME280;64406;50.024;14.492;2024-01-06T01:45:19;96834.56;;;3.08;96.12
75788;BME280;64406;50.024;14.492;2024-01-06T01:47:45;96847.88;;;3.08;95.72
75788;BME280;64406;50.024;14.492;2024-01-06T01:50:12;96835.09;;;3.10;95.59
75788;BME280;64406;50.024;14.492;2024-01-06T01:52:39;96836.44;;;3.22;95.84
75788;BME280;64406;50.024;14.492;2024-01-06T01:55:06;96831.91;;;3.23;95.90
75788;BME280;64406;50.024;14.492;2024-01-06T01:57:32;96846.81;;;3.49;95.67
75788;BME280;64406;50.024;14.492;2024-01-06T01:59:59;96844.69;;;3.72;94.30
75788;BME280;64406;50.024;14.492;2024-01-06T02:02:25;96837.78;;;3.66;94.17
75788;BME280;64406;50.024;14.492;2024-01-06T02:04:51;96841.75;;;3.43;95.08
75788;BME280;64406;50.024;14.492;2024-01-06T02:07:17;96841.75;;;3.48;95.73
75788;BME280;64406;50.024;14.492;2024-01-06T02:09:43;96841.25;;;3.41;95.83
75788;BME280;64406;50.024;14.492;2024-01-06T02:12:08;96838.03;;;3.54;95.49
75788;BME280;64406;50.024;14.492;2024-01-06T02:14:34;96839.63;;;3.60;94.86
75788;BME280;64406;50.024;14.492;2024-01-06T02:16:59;96839.13;;;3.58;95.36
75788;BME280;64406;50.024;14.492;2024-01-06T02:19:25;96833.81;;;3.38;95.68
75788;BME280;64406;50.024;14.492;2024-01-06T02:21:52;96835.91;;;3.41;95.25
75788;BME280;64406;50.024;14.492;2024-01-06T02:24:18;96839.63;;;3.60;95.11
75788;BME280;64406;50.024;14.492;2024-01-06T02:26:44;96842.28;;;3.65;95.72
75788;BME280;64406;50.024;14.492;2024-01-06T02:29:10;96834.31;;;3.65;96.57
75788;BME280;64406;50.024;14.492;2024-01-06T02:31:35;96836.44;;;3.68;96.44
75788;BME280;64406;50.024;14.492;2024-01-06T02:34:01;96845.75;;;3.71;96.37
75788;BME280;64406;50.024;14.492;2024-01-06T02:36:27;96847.06;;;3.73;96.46
75788;BME280;64406;50.024;14.492;2024-01-06T02:38:52;96840.94;;;3.73;96.71
75788;BME280;64406;50.024;14.492;2024-01-06T02:41:18;96839.09;;;3.73;96.29
75788;BME280;64406;50.024;14.492;2024-01-06T02:43:44;96837.50;;;3.77;96.58
75788;BME280;64406;50.024;14.492;2024-01-06T02:46:09;96844.13;;;3.80;96.37
75788;BME280;64406;50.024;14.492;2024-01-06T02:48:35;96852.66;;;3.82;95.63
75788;BME280;64406;50.024;14.492;2024-01-06T02:51:00;96841.50;;;3.70;96.34
75788;BME280;64406;50.024;14.492;2024-01-06T02:53:26;96842.81;;;3.67;96.70
75788;BME280;64406;50.024;14.492;2024-01-06T02:55:51;96838.84;;;3.60;97.08
75788;BME280;64406;50.024;14.492;2024-01-06T02:58:17;96842.81;;;3.67;96.59
75788;BME280;64406;50.024;14.492;2024-01-06T03:00:42;96839.88;;;3.69;96.10
75788;BME280;64406;50.024;14.492;2024-01-06T03:03:08;96844.16;;;3.65;96.55
75788;BME280;64406;50.024;14.492;2024-01-06T03:05:34;96839.63;;;3.55;97.62
75788;BME280;64406;50.024;14.492;2024-01-06T03:07:59;96840.97;;;3.47;97.53
75788;BME280;64406;50.024;14.492;2024-01-06T03:10:26;96844.97;;;3.55;97.66
75788;BME280;64406;50.024;14.492;2024-01-06T03:12:51;96839.91;;;3.53;97.75
75788;BME280;64406;50.024;14.492;2024-01-06T03:15:17;96848.41;;;3.66;97.36
75788;BME280;64406;50.024;14.492;2024-01-06T03:17:43;96842.56;;;3.53;97.42
75788;BME280;64406;50.024;14.492;2024-01-06T03:20:08;96845.78;;;3.45;97.87
75788;BME280;64406;50.024;14.492;2024-01-06T03:22:34;96838.84;;;3.65;97.39
75788;BME280;64406;50.024;14.492;2024-01-06T03:25:00;96836.44;;;3.53;97.43
75788;BME280;64406;50.024;14.492;2024-01-06T03:27:25;96838.56;;;3.56;97.73
75788;BME280;64406;50.024;14.492;2024-01-06T03:29:51;96839.66;;;3.50;97.79
75788;BME280;64406;50.024;14.492;2024-01-06T03:32:17;96831.38;;;3.36;98.53
75788;BME280;64406;50.024;14.492;2024-01-06T03:34:42;96829.00;;;3.30;98.58
75788;BME280;64406;50.024;14.492;2024-01-06T03:37:08;96838.84;;;3.29;99.17
75788;BME280;64406;50.024;14.492;2024-01-06T03:39:34;96834.31;;;3.04;100.00
75788;BME280;64406;50.024;14.492;2024-01-06T03:42:00;96841.72;;;2.82;100.00
75788;BME280;64406;50.024;14.492;2024-01-06T03:44:25;96849.94;;;2.75;100.00
75788;BME280;64406;50.024;14.492;2024-01-06T03:46:58;96847.25;;;2.70;100.00
75788;BME280;64406;50.024;14.492;2024-01-06T03:49:24;96847.53;;;2.68;100.00
75788;BME280;64406;50.024;14.492;2024-01-06T03:51:50;96842.50;;;2.72;100.00
75788;BME280;64406;50.024;14.492;2024-01-06T03:54:16;96838.53;;;2.80;100.00
75788;BME280;64406;50.024;14.492;2024-01-06T03:56:41;96835.88;;;2.85;100.00
75788;BME280;64406;50.024;14.492;2024-01-06T03:59:07;96838.81;;;2.93;100.00
75788;BME280;64406;50.024;14.492;2024-01-06T04:01:33;96835.38;;;3.08;100.00
75788;BME280;64406;50.024;14.492;2024-01-06T04:04:04;96834.84;;;3.11;100.00
75788;BME280;64406;50.024;14.492;2024-01-06T04:06:30;96826.06;;;3.11;100.00
75788;BME280;64406;50.024;14.492;2024-01-06T04:09:00;96817.28;;;3.15;100.00
75788;BME280;64406;50.024;14.492;2024-01-06T04:11:26;96827.91;;;2.95;100.00
75788;BME280;64406;50.024;14.492;2024-01-06T04:13:51;96825.81;;;3.12;100.00
75788;BME280;64406;50.024;14.492;2024-01-06T04:16:28;96838.28;;;2.96;100.00
75788;BME280;64406;50.024;14.492;2024-01-06T04:18:54;96832.97;;;2.91;100.00
75788;BME280;64406;50.024;14.492;2024-01-06T04:21:20;96827.38;;;2.88;100.00
75788;BME280;64406;50.024;14.492;2024-01-06T04:23:46;96833.47;;;2.78;100.00
75788;BME280;64406;50.024;14.492;2024-01-06T04:26:11;96820.72;;;2.80;100.00
75788;BME280;64406;50.024;14.492;2024-01-06T04:28:37;96832.41;;;2.79;100.00
75788;BME280;64406;50.024;14.492;2024-01-06T04:31:03;96828.69;;;2.80;100.00
75788;BME280;64406;50.024;14.492;2024-01-06T04:33:29;96830.81;;;2.73;100.00
75788;BME280;64406;50.024;14.492;2024-01-06T04:35:54;96825.19;;;2.69;100.00
75788;BME280;64406;50.024;14.492;2024-01-06T04:38:20;96827.06;;;2.69;100.00
75788;BME280;64406;50.024;14.492;2024-01-06T04:40:45;96836.63;;;2.70;100.00
75788;BME280;64406;50.024;14.492;2024-01-06T04:43:11;96840.63;;;2.72;100.00
75788;BME280;64406;50.024;14.492;2024-01-06T04:45:37;96838.28;;;2.86;100.00
75788;BME280;64406;50.024;14.492;2024-01-06T04:48:03;96843.56;;;2.81;100.00
75788;BME280;64406;50.024;14.492;2024-01-06T04:50:29;96839.56;;;2.73;100.00
75788;BME280;64406;50.024;14.492;2024-01-06T04:52:55;96840.94;;;2.91;100.00
75788;BME280;64406;50.024;14.492;2024-01-06T04:55:20;96839.09;;;3.07;100.00
75788;BME280;64406;50.024;14.492;2024-01-06T05:00:14;96836.69;;;2.95;100.00
75788;BME280;64406;50.024;14.492;2024-01-06T05:02:40;96850.50;;;2.87;100.00
75788;BME280;64406;50.024;14.492;2024-01-06T05:05:06;96854.75;;;2.78;100.00
75788;BME280;64406;50.024;14.492;2024-01-06T05:07:32;96853.41;;;2.81;100.00
75788;BME280;64406;50.024;14.492;2024-01-06T05:09:58;96847.28;;;2.65;100.00
75788;BME280;64406;50.024;14.492;2024-01-06T05:12:23;96844.59;;;2.65;100.00
75788;BME280;64406;50.024;14.492;2024-01-06T05:14:49;96847.81;;;2.72;100.00
75788;BME280;64406;50.024;14.492;2024-01-06T05:17:15;96843.28;;;2.72;100.00
75788;BME280;64406;50.024;14.492;2024-01-06T05:19:40;96853.38;;;2.70;100.00
75788;BME280;64406;50.024;14.492;2024-01-06T05:22:06;96853.63;;;2.69;100.00
75788;BME280;64406;50.024;14.492;2024-01-06T05:24:32;96847.03;;;2.71;100.00
75788;BME280;64406;50.024;14.492;2024-01-06T05:26:57;96847.25;;;2.70;100.00
75788;BME280;64406;50.024;14.492;2024-01-06T05:29:23;96849.63;;;2.61;100.00
75788;BME280;64406;50.024;14.492;2024-01-06T05:31:51;96857.34;;;2.63;100.00
75788;BME280;64406;50.024;14.492;2024-01-06T05:34:17;96858.41;;;2.62;100.00
75788;BME280;64406;50.024;14.492;2024-01-06T05:36:43;96865.59;;;2.61;100.00
75788;BME280;64406;50.024;14.492;2024-01-06T05:39:08;96864.25;;;2.59;100.00
75788;BME280;64406;50.024;14.492;2024-01-06T05:41:40;96862.91;;;2.51;100.00
75788;BME280;64406;50.024;14.492;2024-01-06T05:44:06;96874.31;;;2.57;100.00
75788;BME280;64406;50.024;14.492;2024-01-06T05:46:34;96866.91;;;2.59;100.00
75788;BME280;64406;50.024;14.492;2024-01-06T05:48:59;96870.38;;;2.59;100.00
75788;BME280;64406;50.024;14.492;2024-01-06T05:51:25;96867.47;;;2.66;100.00
75788;BME280;64406;50.024;14.492;2024-01-06T05:53:51;96875.94;;;2.63;100.00
75788;BME280;64406;50.024;14.492;2024-01-06T05:56:24;96894.38;;;2.85;100.00
75788;BME280;64406;50.024;14.492;2024-01-06T05:58:50;96889.31;;;2.83;100.00
75788;BME280;64406;50.024;14.492;2024-01-06T06:01:16;96882.16;;;2.94;100.00
75788;BME280;64406;50.024;14.492;2024-01-06T06:03:41;96889.38;;;2.98;100.00
75788;BME280;64406;50.024;14.492;2024-01-06T06:06:08;96899.47;;;2.91;100.00
75788;BME280;64406;50.024;14.492;2024-01-06T06:08:34;96897.34;;;3.04;100.00
75788;BME280;64406;50.024;14.492;2024-01-06T06:11:00;96904.53;;;3.08;100.00
75788;BME280;64406;50.024;14.492;2024-01-06T06:13:36;96916.50;;;3.06;100.00
75788;BME280;64406;50.024;14.492;2024-01-06T06:16:03;96908.25;;;3.07;100.00
75788;BME280;64406;50.024;14.492;2024-01-06T06:18:28;96913.06;;;3.05;100.00
75788;BME280;64406;50.024;14.492;2024-01-06T06:20:54;96902.91;;;3.02;100.00
75788;BME280;64406;50.024;14.492;2024-01-06T06:23:20;96913.84;;;3.16;100.00
75788;BME280;64406;50.024;14.492;2024-01-06T06:25:46;96921.56;;;3.07;100.00
75788;BME280;64406;50.024;14.492;2024-01-06T06:28:11;96919.44;;;3.04;100.00
75788;BME280;64406;50.024;14.492;2024-01-06T06:30:37;96929.81;;;3.06;100.00
75788;BME280;64406;50.024;14.492;2024-01-06T06:33:03;96933.28;;;3.06;100.00
75788;BME280;64406;50.024;14.492;2024-01-06T06:35:29;96928.19;;;2.94;100.00
75788;BME280;64406;50.024;14.492;2024-01-06T06:37:55;96924.81;;;3.24;100.00
75788;BME280;64406;50.024;14.492;2024-01-06T06:40:20;96933.56;;;3.30;100.00
75788;BME280;64406;50.024;14.492;2024-01-06T06:42:46;96947.66;;;3.15;100.00
75788;BME280;64406;50.024;14.492;2024-01-06T06:45:12;96942.31;;;3.05;100.00
75788;BME280;64406;50.024;14.492;2024-01-06T06:47:37;96938.06;;;3.04;100.00
75788;BME280;64406;50.024;14.492;2024-01-06T06:50:03;96952.41;;;3.03;100.00
75788;BME280;64406;50.024;14.492;2024-01-06T06:52:29;96959.38;;;3.19;100.00
75788;BME280;64406;50.024;14.492;2024-01-06T06:54:54;96964.47;;;3.31;100.00
75788;BME280;64406;50.024;14.492;2024-01-06T06:57:20;96968.91;;;3.10;100.00
75788;BME280;64406;50.024;14.492;2024-01-06T06:59:45;96961.53;;;3.33;100.00
75788;BME280;64406;50.024;14.492;2024-01-06T07:02:11;96971.34;;;3.22;100.00
75788;BME280;64406;50.024;14.492;2024-01-06T07:04:37;96962.03;;;3.19;100.00
75788;BME280;64406;50.024;14.492;2024-01-06T07:07:03;96971.06;;;3.13;100.00
75788;BME280;64406;50.024;14.492;2024-01-06T07:09:28;96977.22;;;3.29;100.00
75788;BME280;64406;50.024;14.492;2024-01-06T07:11:54;96976.94;;;3.20;100.00
75788;BME280;64406;50.024;14.492;2024-01-06T07:14:19;96980.44;;;3.36;100.00
75788;BME280;64406;50.024;14.492;2024-01-06T07:16:45;96983.34;;;3.35;100.00
75788;BME280;64406;50.024;14.492;2024-01-06T07:19:11;96989.75;;;3.39;100.00
75788;BME280;64406;50.024;14.492;2024-01-06T07:21:37;96989.75;;;3.39;100.00
75788;BME280;64406;50.024;14.492;2024-01-06T07:24:02;96990.28;;;3.36;100.00
75788;BME280;64406;50.024;14.492;2024-01-06T07:26:28;96984.41;;;3.34;100.00
75788;BME280;64406;50.024;14.492;2024-01-06T07:28:54;96989.50;;;3.40;100.00
75788;BME280;64406;50.024;14.492;2024-01-06T07:31:20;96995.13;;;3.69;100.00
75788;BME280;64406;50.024;14.492;2024-01-06T07:33:46;96993.28;;;3.85;100.00
75788;BME280;64406;50.024;14.492;2024-01-06T07:36:12;97000.44;;;3.59;100.00
75788;BME280;64406;50.024;14.492;2024-01-06T07:38:38;97002.88;;;3.86;100.00
75788;BME280;64406;50.024;14.492;2024-01-06T07:41:03;97007.09;;;3.46;100.00
75788;BME280;64406;50.024;14.492;2024-01-06T07:43:32;96999.13;;;3.57;100.00
75788;BME280;64406;50.024;14.492;2024-01-06T07:45:58;96996.22;;;3.63;100.00
75788;BME280;64406;50.024;14.492;2024-01-06T07:48:23;97003.94;;;3.65;100.00
75788;BME280;64406;50.024;14.492;2024-01-06T07:50:50;97004.94;;;3.48;100.00
75788;BME280;64406;50.024;14.492;2024-01-06T07:53:15;97007.03;;;3.36;100.00
75788;BME280;64406;50.024;14.492;2024-01-06T07:55:41;97009.47;;;3.48;100.00
75788;BME280;64406;50.024;14.492;2024-01-06T07:58:06;97018.22;;;3.33;100.00
75788;BME280;64406;50.024;14.492;2024-01-06T08:00:32;97029.66;;;3.28;100.00
75788;BME280;64406;50.024;14.492;2024-01-06T08:02:57;97027.19;;;3.17;100.00
75788;BME280;64406;50.024;14.492;2024-01-06T08:05:23;97023.78;;;3.26;100.00
75788;BME280;64406;50.024;14.492;2024-01-06T08:07:50;97023.00;;;3.36;100.00
75788;BME280;64406;50.024;14.492;2024-01-06T08:10:16;97026.19;;;3.28;100.00
75788;BME280;64406;50.024;14.492;2024-01-06T08:12:42;97020.34;;;3.31;100.00
75788;BME280;64406;50.024;14.492;2024-01-06T08:15:08;97026.75;;;3.40;100.00
75788;BME280;64406;50.024;14.492;2024-01-06T08:17:35;97031.53;;;3.43;100.00
75788;BME280;64406;50.024;14.492;2024-01-06T08:20:01;97029.44;;;3.45;100.00
75788;BME280;64406;50.024;14.492;2024-01-06T08:22:27;97032.13;;;3.61;100.00
75788;BME280;64406;50.024;14.492;2024-01-06T08:24:53;97040.41;;;3.64;100.00
75788;BME280;64406;50.024;14.492;2024-01-06T08:27:18;97040.69;;;3.73;100.00
75788;BME280;64406;50.024;14.492;2024-01-06T08:29:44;97042.22;;;3.48;100.00
75788;BME280;64406;50.024;14.492;2024-01-06T08:32:10;97043.50;;;3.31;100.00
75788;BME280;64406;50.024;14.492;2024-01-06T08:34:37;97039.88;;;3.57;100.00
75788;BME280;64406;50.024;14.492;2024-01-06T08:37:03;97047.06;;;3.57;100.00
75788;BME280;64406;50.024;14.492;2024-01-06T08:39:29;97044.13;;;3.58;100.00
75788;BME280;64406;50.024;14.492;2024-01-06T08:41:55;97051.31;;;3.68;100.00
75788;BME280;64406;50.024;14.492;2024-01-06T08:44:20;97047.38;;;3.96;100.00
75788;BME280;64406;50.024;14.492;2024-01-06T08:46:46;97059.34;;;3.83;100.00
75788;BME280;64406;50.024;14.492;2024-01-06T08:49:12;97057.50;;;3.84;100.00
75788;BME280;64406;50.024;14.492;2024-01-06T08:51:37;97065.16;;;3.60;100.00
75788;BME280;64406;50.024;14.492;2024-01-06T08:54:03;97066.50;;;3.57;100.00
75788;BME280;64406;50.024;14.492;2024-01-06T08:56:33;97072.06;;;3.61;100.00
75788;BME280;64406;50.024;14.492;2024-01-06T08:58:59;97066.97;;;3.44;100.00
75788;BME280;64406;50.024;14.492;2024-01-06T09:01:24;97068.38;;;3.72;100.00
75788;BME280;64406;50.024;14.492;2024-01-06T09:03:50;97072.06;;;3.50;100.00
75788;BME280;64406;50.024;14.492;2024-01-06T09:06:15;97066.78;;;3.76;100.00
75788;BME280;64406;50.024;14.492;2024-01-06T09:08:41;97065.69;;;3.67;100.00
75788;BME280;64406;50.024;14.492;2024-01-06T09:11:07;97069.13;;;3.62;100.00
75788;BME280;64406;50.024;14.492;2024-01-06T09:13:32;97064.66;;;3.73;100.00
75788;BME280;64406;50.024;14.492;2024-01-06T09:15:59;97071.06;;;3.77;100.00
75788;BME280;64406;50.024;14.492;2024-01-06T09:18:26;97072.63;;;3.68;100.00
75788;BME280;64406;50.024;14.492;2024-01-06T09:20:52;97069.91;;;3.47;100.00
75788;BME280;64406;50.024;14.492;2024-01-06T09:23:20;97069.72;;;3.74;100.00
75788;BME280;64406;50.024;14.492;2024-01-06T09:25:46;97080.63;;;3.73;100.00
75788;BME280;64406;50.024;14.492;2024-01-06T09:28:15;97078.81;;;3.99;100.00
75788;BME280;64406;50.024;14.492;2024-01-06T09:30:41;97083.59;;;3.92;100.00
75788;BME280;64406;50.024;14.492;2024-01-06T09:33:07;97082.78;;;3.86;100.00
75788;BME280;64406;50.024;14.492;2024-01-06T09:35:33;97090.69;;;3.55;100.00
75788;BME280;64406;50.024;14.492;2024-01-06T09:37:59;97092.66;;;3.96;100.00
75788;BME280;64406;50.024;14.492;2024-01-06T09:40:25;97093.44;;;3.81;100.00
75788;BME280;64406;50.024;14.492;2024-01-06T09:42:51;97086.53;;;3.85;100.00
75788;BME280;64406;50.024;14.492;2024-01-06T09:45:19;97096.59;;;3.73;100.00
75788;BME280;64406;50.024;14.492;2024-01-06T09:47:49;97096.63;;;3.88;100.00
75788;BME280;64406;50.024;14.492;2024-01-06T09:50:18;97095.63;;;4.09;100.00
75788;BME280;64406;50.024;14.492;2024-01-06T09:52:46;97088.19;;;4.37;100.00
75788;BME280;64406;50.024;14.492;2024-01-06T09:55:18;97084.97;;;4.66;99.49
75788;BME280;64406;50.024;14.492;2024-01-06T09:57:47;97088.44;;;4.61;98.46
75788;BME280;64406;50.024;14.492;2024-01-06T10:00:13;97086.56;;;4.72;97.49
75788;BME280;64406;50.024;14.492;2024-01-06T10:02:38;97093.25;;;4.69;95.98
75788;BME280;64406;50.024;14.492;2024-01-06T10:05:06;97088.44;;;4.51;97.21
75788;BME280;64406;50.024;14.492;2024-01-06T10:07:32;97088.44;;;4.61;97.05
75788;BME280;64406;50.024;14.492;2024-01-06T10:09:58;97087.63;;;4.71;96.29
75788;BME280;64406;50.024;14.492;2024-01-06T10:12:25;97081.22;;;4.61;96.47
75788;BME280;64406;50.024;14.492;2024-01-06T10:14:51;97080.19;;;4.57;95.96
75788;BME280;64406;50.024;14.492;2024-01-06T10:17:17;97072.72;;;4.44;97.72
75788;BME280;64406;50.024;14.492;2024-01-06T10:19:45;97075.13;;;4.51;97.06
75788;BME280;64406;50.024;14.492;2024-01-06T10:22:11;97079.09;;;4.69;96.32
75788;BME280;64406;50.024;14.492;2024-01-06T10:24:37;97082.56;;;4.13;98.84
75788;BME280;64406;50.024;14.492;2024-01-06T10:27:03;97071.09;;;4.02;99.86
75788;BME280;64406;50.024;14.492;2024-01-06T10:29:29;97075.66;;;4.32;100.00
75788;BME280;64406;50.024;14.492;2024-01-06T10:31:55;97083.91;;;4.46;99.20
75788;BME280;64406;50.024;14.492;2024-01-06T10:34:22;97083.94;;;4.36;98.07
75788;BME280;64406;50.024;14.492;2024-01-06T10:36:49;97084.72;;;4.16;99.74
75788;BME280;64406;50.024;14.492;2024-01-06T10:39:18;97085.22;;;4.08;100.00
75788;BME280;64406;50.024;14.492;2024-01-06T10:41:45;97081.47;;;4.09;100.00
75788;BME280;64406;50.024;14.492;2024-01-06T10:44:11;97075.63;;;4.27;100.00
75788;BME280;64406;50.024;14.492;2024-01-06T10:46:38;97078.31;;;4.32;98.62
75788;BME280;64406;50.024;14.492;2024-01-06T10:49:05;97068.19;;;4.19;97.96
75788;BME280;64406;50.024;14.492;2024-01-06T10:51:34;97076.16;;;4.09;99.19
75788;BME280;64406;50.024;14.492;2024-01-06T10:54:01;97065.25;;;4.11;99.44
75788;BME280;64406;50.024;14.492;2024-01-06T10:56:29;97069.25;;;4.18;98.75
75788;BME280;64406;50.024;14.492;2024-01-06T10:58:56;97058.59;;;4.23;99.80
75788;BME280;64406;50.024;14.492;2024-01-06T11:01:23;97066.31;;;4.15;100.00
75788;BME280;64406;50.024;14.492;2024-01-06T11:03:53;97067.66;;;4.12;99.77
75788;BME280;64406;50.024;14.492;2024-01-06T11:06:20;97060.19;;;4.24;99.55
75788;BME280;64406;50.024;14.492;2024-01-06T11:09:14;97064.69;;;3.98;99.21
75788;BME280;64406;50.024;14.492;2024-01-06T11:11:42;97061.25;;;4.23;99.16
75788;BME280;64406;50.024;14.492;2024-01-06T11:14:19;97064.44;;;4.41;98.25
75788;BME280;64406;50.024;14.492;2024-01-06T11:16:48;97051.63;;;4.63;96.55
75788;BME280;64406;50.024;14.492;2024-01-06T11:22:21;97060.41;;;4.69;97.08
75788;BME280;64406;50.024;14.492;2024-01-06T11:24:50;97061.19;;;4.79;96.49
75788;BME280;64406;50.024;14.492;2024-01-06T11:27:24;97055.06;;;4.79;96.73
75788;BME280;64406;50.024;14.492;2024-01-06T11:29:54;97049.78;;;4.18;98.50
75788;BME280;64406;50.024;14.492;2024-01-06T11:32:28;97051.09;;;3.95;99.79
75788;BME280;64406;50.024;14.492;2024-01-06T11:34:55;97059.63;;;3.87;100.00
75788;BME280;64406;50.024;14.492;2024-01-06T11:40:25;97058.84;;;3.96;100.00
75788;BME280;64406;50.024;14.492;2024-01-06T11:43:09;97056.72;;;3.98;100.00
75788;BME280;64406;50.024;14.492;2024-01-06T11:45:36;97058.84;;;4.12;99.75
75788;BME280;64406;50.024;14.492;2024-01-06T11:48:07;97041.81;;;4.23;99.59
75788;BME280;64406;50.024;14.492;2024-01-06T11:50:35;97058.84;;;4.22;99.40
75788;BME280;64406;50.024;14.492;2024-01-06T11:53:03;97056.44;;;4.05;100.00
75788;BME280;64406;50.024;14.492;2024-01-06T11:55:29;97053.00;;;4.04;99.86
75788;BME280;64406;50.024;14.492;2024-01-06T11:57:57;97064.97;;;4.12;99.37
75788;BME280;64406;50.024;14.492;2024-01-06T12:00:28;97063.09;;;4.07;98.49
75788;BME280;64406;50.024;14.492;2024-01-06T12:02:58;97055.38;;;4.11;99.52
75788;BME280;64406;50.024;14.492;2024-01-06T12:05:24;97062.31;;;4.12;100.00
75788;BME280;64406;50.024;14.492;2024-01-06T12:07:56;97059.13;;;4.10;100.00
75788;BME280;64406;50.024;14.492;2024-01-06T12:10:23;97060.69;;;3.86;100.00
75788;BME280;64406;50.024;14.492;2024-01-06T12:13:01;97056.16;;;4.01;100.00
75788;BME280;64406;50.024;14.492;2024-01-06T12:15:28;97062.53;;;3.70;100.00
75788;BME280;64406;50.024;14.492;2024-01-06T12:17:54;97062.78;;;3.63;100.00
75788;BME280;64406;50.024;14.492;2024-01-06T12:20:22;97064.38;;;3.64;100.00
75788;BME280;64406;50.024;14.492;2024-01-06T12:22:48;97060.91;;;3.74;100.00
75788;BME280;64406;50.024;14.492;2024-01-06T12:25:14;97065.19;;;3.70;100.00
75788;BME280;64406;50.024;14.492;2024-01-06T12:27:44;97057.13;;;3.49;100.00
75788;BME280;64406;50.024;14.492;2024-01-06T12:30:18;97061.41;;;3.61;100.00
75788;BME280;64406;50.024;14.492;2024-01-06T12:32:45;97062.25;;;3.81;100.00
75788;BME280;64406;50.024;14.492;2024-01-06T12:35:11;97061.47;;;3.86;100.00
75788;BME280;64406;50.024;14.492;2024-01-06T12:37:38;97067.34;;;3.88;100.00
75788;BME280;64406;50.024;14.492;2024-01-06T12:40:05;97059.06;;;3.79;100.00
75788;BME280;64406;50.024;14.492;2024-01-06T12:42:31;97063.63;;;3.94;100.00
75788;BME280;64406;50.024;14.492;2024-01-06T12:44:56;97061.25;;;3.98;100.00
75788;BME280;64406;50.024;14.492;2024-01-06T12:47:22;97055.91;;;4.03;100.00
75788;BME280;64406;50.024;14.492;2024-01-06T12:49:48;97056.44;;;3.90;100.00
75788;BME280;64406;50.024;14.492;2024-01-06T12:52:14;97071.09;;;3.92;100.00
75788;BME280;64406;50.024;14.492;2024-01-06T12:54:39;97062.56;;;4.05;100.00
75788;BME280;64406;50.024;14.492;2024-01-06T12:57:07;97067.91;;;4.26;100.00
75788;BME280;64406;50.024;14.492;2024-01-06T12:59:32;97072.44;;;4.46;98.92